Time;durP1;ratioP1;P1;durP2;ratioP2;P2;SDS_P1;SDS_P2;PMS_P1;PMS_P2;Temp;Humidity;BMP_temperature;BMP_pressure;BME280_temperature;BME280_humidity;BME280_pressure;Samples;Min_cycle;Max_cycle;Signal;HPM_P1;HPM_P2
2022/01/31 00:00:57;;;;;;;13.70;3.38;;;4.00;99.90;;;;;;4988338;28;20468;-70
2022/01/31 00:03:23;;;;;;;12.00;2.63;;;4.00;99.90;;;;;;4988247;28;20094;-69
2022/01/31 00:05:49;;;;;;;16.70;4.18;;;4.00;99.90;;;;;;4988231;28;20023;-70
2022/01/31 00:08:21;;;;;;;16.90;2.83;;;4.00;99.90;;;;;;4988658;28;20019;-69
2022/01/31 00:10:47;;;;;;;31.67;4.22;;;4.00;99.90;;;;;;4988624;28;20050;-69
2022/01/31 00:13:19;;;;;;;8.30;2.33;;;4.00;99.90;;;;;;4988356;28;20039;-69
2022/01/31 00:15:52;;;;;;;9.27;2.92;;;4.00;99.90;;;;;;4988664;28;20027;-69
2022/01/31 00:18:18;;;;;;;13.85;2.08;;;3.90;99.90;;;;;;4970743;28;20475;-71
2022/01/31 00:20:44;;;;;;;14.98;2.78;;;4.00;99.90;;;;;;4988470;28;20046;-70
2022/01/31 00:23:10;;;;;;;14.77;3.35;;;4.00;99.90;;;;;;4988356;28;20047;-70
2022/01/31 00:25:44;;;;;;;11.05;2.50;;;4.00;99.90;;;;;;4987591;28;20057;-70
2022/01/31 00:28:10;;;;;;;22.35;2.80;;;3.90;99.90;;;;;;4988379;28;20034;-69
2022/01/31 00:30:36;;;;;;;10.70;2.40;;;3.90;99.90;;;;;;4987065;28;20027;-71
2022/01/31 00:33:02;;;;;;;13.77;3.45;;;3.90;99.90;;;;;;4987920;28;20054;-69
2022/01/31 00:35:28;;;;;;;19.83;3.17;;;3.90;99.90;;;;;;4987596;28;20030;-70
2022/01/31 00:37:53;;;;;;;19.75;2.83;;;3.90;99.90;;;;;;4987483;28;20069;-70
2022/01/31 00:40:20;;;;;;;21.73;2.80;;;3.90;99.90;;;;;;4987836;28;20106;-71
2022/01/31 00:42:46;;;;;;;8.10;1.75;;;3.80;99.90;;;;;;4988039;28;20031;-70
2022/01/31 00:47:40;;;;;;;9.10;1.63;;;3.80;99.90;;;;;;4988056;28;20038;-70
2022/01/31 00:50:08;;;;;;;27.77;3.28;;;3.80;99.90;;;;;;4987806;28;20023;-70
2022/01/31 00:52:37;;;;;;;25.13;4.07;;;3.80;99.90;;;;;;4987426;28;20757;-71
2022/01/31 00:55:04;;;;;;;25.60;3.45;;;3.70;99.90;;;;;;4987202;28;20059;-71
2022/01/31 00:57:30;;;;;;;13.40;2.78;;;3.70;99.90;;;;;;4987490;28;20031;-71
2022/01/31 00:59:55;;;;;;;20.15;2.72;;;3.70;99.90;;;;;;4987518;28;20038;-70
2022/01/31 01:02:22;;;;;;;11.13;2.97;;;3.70;99.90;;;;;;4987203;28;20027;-70
2022/01/31 01:04:49;;;;;;;19.48;2.75;;;3.70;99.90;;;;;;4986935;28;20042;-71
2022/01/31 01:07:15;;;;;;;17.58;4.10;;;3.60;99.90;;;;;;4987298;28;20043;-70
2022/01/31 01:09:46;;;;;;;12.63;2.75;;;3.70;99.90;;;;;;4987175;28;20122;-69
2022/01/31 01:12:13;;;;;;;9.88;1.83;;;3.70;99.90;;;;;;4987601;28;20053;-72
2022/01/31 01:14:39;;;;;;;16.08;4.88;;;3.70;99.90;;;;;;4987380;28;20031;-69
2022/01/31 01:17:04;;;;;;;44.42;2.63;;;3.70;99.90;;;;;;4987012;28;20521;-70
2022/01/31 01:19:30;;;;;;;20.27;2.50;;;3.70;99.90;;;;;;4987196;28;20031;-70
2022/01/31 01:21:56;;;;;;;7.82;2.28;;;3.80;99.90;;;;;;4987272;28;20031;-71
2022/01/31 01:24:21;;;;;;;13.70;4.00;;;3.80;99.90;;;;;;4986883;28;20042;-69
2022/01/31 01:26:48;;;;;;;14.38;2.95;;;3.80;99.90;;;;;;4987076;28;20030;-70
2022/01/31 01:29:14;;;;;;;6.53;2.22;;;3.80;99.90;;;;;;4987164;28;20023;-70
2022/01/31 01:31:40;;;;;;;14.27;2.85;;;3.80;99.90;;;;;;4987053;28;20042;-70
2022/01/31 01:34:06;;;;;;;14.90;2.70;;;3.80;99.90;;;;;;4986704;28;20034;-69
2022/01/31 01:36:32;;;;;;;7.00;1.10;;;3.90;99.90;;;;;;4986268;28;20039;-71
2022/01/31 01:38:58;;;;;;;10.82;3.25;;;3.80;99.90;;;;;;4986881;28;20029;-71
2022/01/31 01:41:24;;;;;;;13.48;3.38;;;3.80;99.90;;;;;;4986129;28;20034;-70
2022/01/31 01:43:53;;;;;;;16.80;2.75;;;3.70;99.90;;;;;;4986475;28;20059;-69
2022/01/31 01:46:19;;;;;;;13.23;3.88;;;3.70;99.90;;;;;;4986718;28;20054;-70
2022/01/31 01:48:44;;;;;;;13.38;3.80;;;3.60;99.90;;;;;;4986560;28;20031;-71
2022/01/31 01:51:10;;;;;;;21.13;4.38;;;3.50;99.90;;;;;;4986759;28;20033;-71
2022/01/31 01:53:35;;;;;;;13.98;4.13;;;3.50;99.90;;;;;;4986342;28;20078;-71
2022/01/31 01:56:01;;;;;;;29.05;3.92;;;3.50;99.90;;;;;;4969277;28;20144;-70
2022/01/31 01:58:37;;;;;;;22.95;3.58;;;3.50;99.90;;;;;;4986470;28;20069;-71
2022/01/31 02:01:03;;;;;;;16.20;4.03;;;3.40;99.90;;;;;;4985792;28;20031;-72
2022/01/31 02:03:31;;;;;;;18.17;3.00;;;3.40;99.90;;;;;;4986295;28;20057;-70
2022/01/31 02:05:57;;;;;;;17.65;2.90;;;3.40;99.90;;;;;;4984539;28;20035;-70
2022/01/31 02:08:25;;;;;;;14.75;3.25;;;3.40;99.90;;;;;;4985874;28;20037;-70
2022/01/31 02:10:51;;;;;;;24.70;4.07;;;3.30;99.90;;;;;;4968526;28;20026;-72
2022/01/31 02:13:18;;;;;;;8.02;3.60;;;3.30;99.90;;;;;;4985930;28;20510;-73
2022/01/31 02:15:50;;;;;;;18.08;4.95;;;3.30;99.90;;;;;;4986449;28;20041;-71
2022/01/31 02:18:18;;;;;;;9.20;2.20;;;3.30;99.90;;;;;;4986340;28;20038;-70
2022/01/31 02:20:44;;;;;;;25.83;3.08;;;3.20;99.90;;;;;;4986102;28;20036;-71
2022/01/31 02:23:12;;;;;;;6.75;2.58;;;3.20;99.90;;;;;;4986275;28;20039;-71
2022/01/31 02:26:10;;;;;;;9.70;3.05;;;3.20;99.90;;;;;;4985874;28;20019;-71
2022/01/31 02:28:39;;;;;;;11.43;2.90;;;3.20;99.90;;;;;;4963574;28;20103;-70
2022/01/31 02:31:06;;;;;;;7.53;2.72;;;3.20;99.90;;;;;;4985874;28;20045;-71
2022/01/31 02:33:33;;;;;;;19.85;3.25;;;3.20;99.90;;;;;;4985976;28;20114;-71
2022/01/31 02:36:04;;;;;;;10.77;3.33;;;3.20;99.90;;;;;;4985977;28;20117;-71
2022/01/31 02:38:30;;;;;;;31.17;3.40;;;3.20;99.90;;;;;;4985509;28;20132;-71
2022/01/31 02:40:56;;;;;;;26.75;2.65;;;3.20;99.90;;;;;;4968293;28;20089;-70
2022/01/31 02:43:24;;;;;;;17.65;3.85;;;3.20;99.90;;;;;;4967560;28;20038;-71
2022/01/31 02:45:50;;;;;;;19.35;3.53;;;3.20;99.90;;;;;;4985650;28;20120;-72
2022/01/31 02:48:19;;;;;;;14.90;2.45;;;3.20;99.90;;;;;;4985987;28;20463;-71
2022/01/31 02:50:46;;;;;;;10.82;3.60;;;3.30;99.90;;;;;;4968356;28;20402;-72
2022/01/31 02:53:28;;;;;;;20.38;3.78;;;3.20;99.90;;;;;;4985439;28;20041;-73
2022/01/31 02:55:56;;;;;;;3.92;1.75;;;3.30;99.90;;;;;;4985447;28;20023;-72
2022/01/31 02:58:24;;;;;;;7.65;2.78;;;3.30;99.90;;;;;;4985766;28;20030;-71
2022/01/31 03:00:51;;;;;;;9.57;2.58;;;3.30;99.90;;;;;;4985784;28;20042;-71
2022/01/31 03:03:18;;;;;;;20.45;3.95;;;3.20;99.90;;;;;;4968380;28;20034;-70
2022/01/31 03:05:44;;;;;;;13.50;3.35;;;3.30;99.90;;;;;;4985881;28;20555;-72
2022/01/31 03:08:10;;;;;;;9.02;2.03;;;3.30;99.90;;;;;;4985956;28;20038;-70
2022/01/31 03:10:36;;;;;;;10.75;2.17;;;3.40;99.90;;;;;;4984960;28;20026;-71
2022/01/31 03:13:02;;;;;;;17.75;3.25;;;3.30;99.90;;;;;;4985682;28;20046;-71
2022/01/31 03:15:28;;;;;;;13.27;1.80;;;3.30;99.90;;;;;;4985290;28;20058;-72
2022/01/31 03:17:54;;;;;;;15.25;1.90;;;3.30;99.90;;;;;;4985145;28;20027;-71
2022/01/31 03:20:22;;;;;;;23.55;3.53;;;3.30;99.90;;;;;;4985530;28;20486;-72
2022/01/31 03:22:48;;;;;;;20.38;3.13;;;3.40;99.90;;;;;;4985650;28;20115;-71
2022/01/31 03:25:15;;;;;;;6.85;2.72;;;3.40;99.90;;;;;;4967987;28;20034;-71
2022/01/31 03:27:43;;;;;;;11.60;2.08;;;3.40;99.90;;;;;;4985516;28;20027;-71
2022/01/31 03:30:14;;;;;;;9.57;2.50;;;3.40;99.90;;;;;;4985548;28;20046;-71
2022/01/31 03:32:40;;;;;;;14.65;3.35;;;3.40;99.90;;;;;;4985544;28;20676;-71
2022/01/31 03:35:07;;;;;;;13.55;3.08;;;3.40;99.90;;;;;;4985492;28;20027;-72
2022/01/31 03:37:33;;;;;;;21.73;2.60;;;3.40;99.90;;;;;;4985501;28;20022;-71
2022/01/31 03:39:59;;;;;;;14.80;3.15;;;3.40;99.90;;;;;;4985058;28;20027;-71
2022/01/31 03:42:25;;;;;;;9.70;1.30;;;3.30;99.90;;;;;;4985310;28;20035;-70
2022/01/31 03:44:51;;;;;;;22.70;3.00;;;3.30;99.90;;;;;;4985128;28;20042;-71
2022/01/31 03:47:21;;;;;;;13.48;3.60;;;3.30;99.90;;;;;;4967331;28;20038;-72
2022/01/31 03:49:47;;;;;;;18.52;3.88;;;3.30;99.90;;;;;;4967543;28;20058;-70
2022/01/31 03:52:13;;;;;;;9.48;3.17;;;3.30;99.90;;;;;;4985355;28;20031;-71
2022/01/31 03:54:39;;;;;;;15.75;3.60;;;3.30;99.90;;;;;;4984545;28;20051;-72
2022/01/31 03:57:04;;;;;;;13.40;3.80;;;3.20;99.90;;;;;;4985217;28;20038;-72
2022/01/31 03:59:30;;;;;;;13.50;3.53;;;3.20;99.90;;;;;;4985472;28;20415;-71
2022/01/31 04:01:56;;;;;;;21.40;4.22;;;3.20;99.90;;;;;;4988697;28;20035;-71
2022/01/31 04:04:21;;;;;;;20.75;3.22;;;3.20;99.90;;;;;;4988400;28;20432;-70
2022/01/31 04:06:48;;;;;;;20.73;3.78;;;3.10;99.90;;;;;;4971123;28;20503;-70
2022/01/31 04:09:14;;;;;;;18.25;3.13;;;3.10;99.90;;;;;;4988594;28;20114;-71
2022/01/31 04:11:41;;;;;;;18.48;3.10;;;3.10;99.90;;;;;;4988345;28;20019;-71
2022/01/31 04:14:08;;;;;;;19.90;3.50;;;3.00;99.90;;;;;;4988154;28;20369;-70
2022/01/31 04:16:34;;;;;;;12.23;5.38;;;3.00;99.90;;;;;;4988303;28;20033;-70
2022/01/31 04:19:00;;;;;;;11.70;4.60;;;2.90;99.90;;;;;;4988020;28;20030;-70
2022/01/31 04:21:26;;;;;;;13.70;4.05;;;2.80;99.90;;;;;;4987174;28;20076;-70
2022/01/31 04:23:51;;;;;;;28.17;5.38;;;2.80;99.90;;;;;;4988098;28;20046;-69
2022/01/31 04:26:19;;;;;;;15.73;5.15;;;2.80;99.90;;;;;;4988365;28;20022;-71
2022/01/31 04:28:48;;;;;;;10.43;4.88;;;2.70;99.90;;;;;;4988121;28;20493;-70
2022/01/31 04:33:49;;;;;;;16.13;4.68;;;2.50;99.90;;;;;;4968874;28;20042;-71
2022/01/31 04:36:15;;;;;;;20.08;5.25;;;2.50;99.90;;;;;;4968720;28;20035;-72
2022/01/31 04:38:45;;;;;;;20.48;4.07;;;2.50;99.90;;;;;;4968891;28;20035;-70
2022/01/31 04:41:11;;;;;;;12.52;5.25;;;2.50;99.90;;;;;;4969029;28;20489;-70
2022/01/31 04:43:37;;;;;;;16.83;6.40;;;2.40;99.90;;;;;;4968246;28;20047;-70
2022/01/31 04:46:05;;;;;;;43.13;6.32;;;2.40;99.90;;;;;;4968514;28;20062;-69
2022/01/31 04:48:31;;;;;;;11.32;4.38;;;2.30;99.90;;;;;;4968166;28;20059;-69
2022/01/31 04:50:57;;;;;;;19.40;5.68;;;2.30;99.90;;;;;;4967857;28;20038;-70
2022/01/31 04:53:23;;;;;;;18.60;6.47;;;2.30;99.90;;;;;;4966817;28;20055;-69
2022/01/31 04:55:49;;;;;;;20.25;5.88;;;2.20;99.90;;;;;;4977361;28;20117;-71
2022/01/31 04:58:15;;;;;;;29.73;6.63;;;2.20;99.90;;;;;;4987558;28;20023;-71
2022/01/31 05:00:40;;;;;;;17.58;6.72;;;2.10;99.90;;;;;;4987685;28;20054;-71
2022/01/31 05:03:12;;;;;;;23.10;6.80;;;2.10;99.90;;;;;;4987395;28;20098;-70
2022/01/31 05:05:40;;;;;;;18.27;6.80;;;2.10;99.90;;;;;;4987695;28;20031;-70
2022/01/31 05:08:06;;;;;;;17.55;6.53;;;2.10;99.90;;;;;;4969919;28;20396;-70
2022/01/31 05:10:34;;;;;;;19.27;7.30;;;2.10;99.90;;;;;;4986307;28;20034;-70
2022/01/31 05:12:59;;;;;;;15.13;5.78;;;2.10;99.90;;;;;;4986940;28;20105;-69
2022/01/31 05:15:25;;;;;;;16.27;5.88;;;2.10;99.90;;;;;;4987066;28;20415;-70
2022/01/31 05:17:55;;;;;;;15.68;6.20;;;2.10;99.90;;;;;;4981408;28;20115;-71
2022/01/31 05:20:21;;;;;;;16.20;6.45;;;2.10;99.90;;;;;;4984570;28;20047;-70
2022/01/31 05:22:47;;;;;;;28.35;8.10;;;2.00;99.90;;;;;;4987111;28;20034;-71
2022/01/31 05:25:12;;;;;;;15.05;6.13;;;2.00;99.90;;;;;;4986965;28;20035;-71
2022/01/31 05:27:38;;;;;;;12.48;5.90;;;2.00;99.90;;;;;;4987394;28;20518;-69
2022/01/31 05:30:04;;;;;;;14.88;6.60;;;2.00;99.90;;;;;;4969549;28;20027;-70
2022/01/31 05:32:30;;;;;;;19.38;6.10;;;1.90;99.90;;;;;;4986453;28;20476;-69
2022/01/31 05:34:56;;;;;;;15.93;5.40;;;1.90;99.90;;;;;;4986910;28;20037;-70
2022/01/31 05:37:21;;;;;;;19.65;6.45;;;1.90;99.90;;;;;;4986854;28;20054;-68
2022/01/31 05:39:47;;;;;;;22.98;6.40;;;1.90;99.90;;;;;;4986706;28;20090;-69
2022/01/31 05:42:13;;;;;;;17.80;5.68;;;1.90;99.90;;;;;;4987048;28;20452;-69
2022/01/31 05:44:39;;;;;;;23.00;5.28;;;1.90;99.90;;;;;;4986956;28;20047;-70
2022/01/31 05:47:05;;;;;;;21.85;7.50;;;1.80;99.90;;;;;;4986490;28;20472;-69
2022/01/31 05:49:32;;;;;;;16.98;5.47;;;1.80;99.90;;;;;;4985913;28;20038;-69
2022/01/31 05:52:04;;;;;;;12.95;5.68;;;1.80;99.90;;;;;;4977409;28;20034;-68
2022/01/31 05:54:31;;;;;;;17.25;5.28;;;1.80;99.90;;;;;;4985840;28;20047;-68
2022/01/31 05:56:57;;;;;;;17.55;4.93;;;1.80;99.90;;;;;;4986212;28;21089;-69
2022/01/31 05:59:23;;;;;;;10.15;5.03;;;1.80;99.90;;;;;;4985974;28;20027;-70
2022/01/31 06:01:48;;;;;;;13.20;3.92;;;1.80;99.90;;;;;;4986657;28;20085;-70
2022/01/31 06:04:14;;;;;;;15.52;5.85;;;1.80;99.90;;;;;;4986161;28;20057;-70
2022/01/31 06:06:40;;;;;;;16.25;6.18;;;1.90;99.90;;;;;;4986522;28;20031;-70
2022/01/31 06:09:06;;;;;;;14.57;4.93;;;1.90;99.90;;;;;;4986305;28;20086;-69
2022/01/31 06:11:34;;;;;;;17.23;5.55;;;1.90;99.90;;;;;;4986346;28;20026;-68
2022/01/31 06:14:01;;;;;;;17.25;6.15;;;1.90;99.90;;;;;;4986222;28;20023;-70
2022/01/31 06:16:28;;;;;;;21.02;5.85;;;1.90;99.90;;;;;;4986275;28;20019;-69
2022/01/31 06:18:54;;;;;;;12.07;4.60;;;1.90;99.90;;;;;;4986153;28;20023;-70
2022/01/31 06:21:19;;;;;;;11.48;5.32;;;1.80;99.90;;;;;;4985646;28;20037;-72
2022/01/31 06:23:45;;;;;;;11.30;4.43;;;1.80;99.90;;;;;;4985763;28;20039;-72
2022/01/31 06:26:11;;;;;;;13.60;5.05;;;1.70;99.90;;;;;;4985897;28;20018;-70
2022/01/31 06:28:36;;;;;;;12.57;5.07;;;1.70;99.90;;;;;;4985938;28;20444;-70
2022/01/31 06:31:02;;;;;;;15.02;5.72;;;1.60;99.90;;;;;;4986289;28;20783;-72
2022/01/31 06:33:28;;;;;;;11.25;5.00;;;1.60;99.90;;;;;;4985898;28;20035;-72
2022/01/31 06:35:54;;;;;;;15.25;5.60;;;1.60;99.90;;;;;;4985809;28;20027;-75
2022/01/31 06:38:21;;;;;;;11.10;4.82;;;1.50;99.90;;;;;;4985818;28;20023;-73
2022/01/31 06:40:48;;;;;;;13.02;5.40;;;1.50;99.90;;;;;;4968433;28;20027;-75
2022/01/31 06:43:15;;;;;;;17.85;5.72;;;1.50;99.90;;;;;;4985999;28;20039;-76
2022/01/31 06:45:41;;;;;;;23.30;5.28;;;1.60;99.90;;;;;;4985990;28;20037;-74
2022/01/31 06:48:07;;;;;;;12.82;5.35;;;1.50;99.90;;;;;;4985542;28;20031;-75
2022/01/31 06:50:33;;;;;;;14.27;5.00;;;1.50;99.90;;;;;;4985031;28;20578;-74
2022/01/31 06:53:01;;;;;;;14.45;6.10;;;1.50;99.90;;;;;;4985695;28;20026;-74
2022/01/31 06:55:28;;;;;;;13.55;5.85;;;1.50;99.90;;;;;;4985656;28;20039;-74
2022/01/31 06:57:54;;;;;;;14.50;5.82;;;1.50;99.90;;;;;;4984726;28;20035;-74
2022/01/31 07:00:21;;;;;;;11.98;5.60;;;1.50;99.90;;;;;;4980930;28;20107;-77
2022/01/31 07:02:49;;;;;;;15.38;6.25;;;1.60;99.90;;;;;;4965995;29;20035;-77
2022/01/31 07:05:16;;;;;;;15.55;6.22;;;1.60;99.90;;;;;;4979491;28;20023;-77
2022/01/31 07:07:43;;;;;;;22.02;6.15;;;1.50;99.90;;;;;;4981384;28;20037;-73
2022/01/31 07:10:10;;;;;;;12.50;5.15;;;1.50;99.90;;;;;;4967388;28;20035;-74
2022/01/31 07:12:40;;;;;;;16.92;6.35;;;1.50;99.90;;;;;;4979415;28;20030;-74
2022/01/31 07:15:09;;;;;;;16.45;6.07;;;1.50;99.90;;;;;;4983442;28;20082;-73
2022/01/31 07:17:35;;;;;;;15.32;5.57;;;1.50;99.90;;;;;;4983601;28;20153;-73
2022/01/31 07:20:04;;;;;;;10.80;4.35;;;1.50;99.90;;;;;;4992481;28;20031;-73
2022/01/31 07:22:36;;;;;;;15.90;5.65;;;1.50;99.90;;;;;;5005100;28;20022;-72
2022/01/31 07:25:08;;;;;;;15.90;6.03;;;1.50;99.90;;;;;;5002330;28;20171;-72
2022/01/31 07:27:35;;;;;;;20.13;6.15;;;1.50;99.90;;;;;;4984096;28;20037;-73
2022/01/31 07:30:02;;;;;;;13.48;5.75;;;1.50;99.90;;;;;;4985521;28;20083;-72
2022/01/31 07:32:28;;;;;;;12.43;5.85;;;1.50;99.90;;;;;;4991036;28;20027;-71
2022/01/31 07:34:55;;;;;;;11.95;5.55;;;1.60;99.90;;;;;;5006470;28;20082;-72
2022/01/31 07:37:23;;;;;;;14.73;5.82;;;1.60;99.90;;;;;;5007397;28;20058;-71
2022/01/31 07:39:50;;;;;;;14.10;5.43;;;1.60;99.90;;;;;;5008550;28;20085;-72
2022/01/31 07:42:16;;;;;;;15.85;5.53;;;1.60;99.90;;;;;;5008092;28;20030;-70
2022/01/31 07:44:43;;;;;;;13.55;5.45;;;1.70;99.90;;;;;;5008438;28;20136;-70
2022/01/31 07:47:08;;;;;;;17.33;6.20;;;1.70;99.90;;;;;;5008260;28;20030;-71
2022/01/31 07:49:35;;;;;;;24.42;5.72;;;1.70;99.90;;;;;;5008032;28;20054;-70
2022/01/31 07:52:01;;;;;;;10.90;4.63;;;1.70;99.90;;;;;;4990670;28;20061;-72
2022/01/31 07:54:27;;;;;;;17.75;6.63;;;1.80;99.90;;;;;;5007892;28;20046;-71
2022/01/31 07:56:53;;;;;;;18.27;6.78;;;1.80;99.90;;;;;;5007635;28;20027;-72
2022/01/31 07:59:19;;;;;;;13.43;6.07;;;1.80;99.90;;;;;;5008050;28;20041;-72
2022/01/31 08:01:45;;;;;;;14.30;5.80;;;1.80;99.90;;;;;;4989760;28;20026;-73
2022/01/31 08:04:10;;;;;;;15.63;6.25;;;1.80;99.90;;;;;;5007839;28;20084;-70
2022/01/31 08:06:36;;;;;;;18.17;7.25;;;1.80;99.90;;;;;;5008043;28;20029;-70
2022/01/31 08:09:03;;;;;;;15.73;6.15;;;1.80;99.90;;;;;;5008178;28;20065;-71
2022/01/31 08:11:34;;;;;;;12.93;5.80;;;1.80;99.90;;;;;;5007922;28;20030;-70
2022/01/31 08:14:05;;;;;;;17.70;6.82;;;1.80;99.90;;;;;;5007798;28;20022;-71
2022/01/31 08:16:32;;;;;;;12.00;5.60;;;1.80;99.90;;;;;;4990250;28;20113;-71
2022/01/31 08:18:58;;;;;;;22.15;6.63;;;1.80;99.90;;;;;;5010678;28;20018;-72
2022/01/31 08:21:24;;;;;;;14.38;5.80;;;1.80;99.90;;;;;;5007874;28;20037;-73
2022/01/31 08:23:51;;;;;;;15.80;6.07;;;1.80;99.90;;;;;;4989824;28;20058;-74
2022/01/31 08:26:17;;;;;;;11.82;5.88;;;1.80;99.90;;;;;;5006417;28;20682;-74
2022/01/31 08:28:53;;;;;;;17.50;5.43;;;1.80;99.90;;;;;;4990396;28;20049;-74
2022/01/31 08:31:28;;;;;;;20.45;6.70;;;1.80;99.90;;;;;;5005138;28;20344;-74
2022/01/31 08:36:34;;;;;;;14.70;5.40;;;1.90;99.90;;;;;;4996072;28;20029;-73
2022/01/31 08:39:08;;;;;;;14.00;4.72;;;1.90;99.90;;;;;;5007480;28;20110;-72
2022/01/31 08:41:35;;;;;;;22.20;7.43;;;2.00;99.90;;;;;;4989006;28;20031;-72
2022/01/31 08:44:02;;;;;;;13.50;5.72;;;2.00;99.90;;;;;;4989899;28;20102;-72
2022/01/31 08:46:27;;;;;;;11.13;5.20;;;2.00;99.90;;;;;;5006409;28;20027;-72
2022/01/31 08:48:55;;;;;;;13.80;5.40;;;2.00;99.90;;;;;;5007137;28;20030;-73
2022/01/31 08:51:20;;;;;;;12.75;5.93;;;2.00;99.90;;;;;;5005072;28;20022;-74
2022/01/31 08:53:48;;;;;;;11.77;5.03;;;2.10;99.90;;;;;;5006832;28;20078;-74
2022/01/31 08:56:18;;;;;;;12.77;5.60;;;2.10;99.90;;;;;;5006997;28;20037;-75
2022/01/31 08:58:49;;;;;;;15.77;5.57;;;2.10;99.90;;;;;;4989701;28;20031;-75
2022/01/31 09:01:24;;;;;;;15.23;5.30;;;2.10;99.90;;;;;;4987979;28;20061;-76
2022/01/31 09:06:19;;;;;;;9.65;4.72;;;2.20;99.90;;;;;;5008822;28;20030;-76
2022/01/31 09:08:47;;;;;;;16.33;6.03;;;2.30;99.90;;;;;;4988952;28;20026;-74
2022/01/31 09:11:13;;;;;;;12.07;5.18;;;2.30;99.90;;;;;;4993463;28;20059;-75
2022/01/31 09:13:40;;;;;;;12.60;5.35;;;2.30;99.90;;;;;;5005671;28;20034;-75
2022/01/31 09:16:07;;;;;;;15.93;5.47;;;2.30;99.90;;;;;;5026388;28;20032;-75
2022/01/31 09:18:33;;;;;;;15.32;5.97;;;2.40;99.90;;;;;;4987821;28;20058;-75
2022/01/31 09:20:59;;;;;;;15.82;4.85;;;2.40;99.90;;;;;;4977763;28;20031;-74
2022/01/31 09:23:27;;;;;;;15.15;5.72;;;2.40;99.90;;;;;;5023228;28;20038;-73
2022/01/31 09:25:53;;;;;;;15.82;5.13;;;2.40;99.90;;;;;;5024320;28;20033;-74
2022/01/31 09:28:19;;;;;;;12.32;5.30;;;2.50;99.90;;;;;;4993873;28;20022;-75
2022/01/31 09:30:46;;;;;;;13.27;4.97;;;2.50;99.90;;;;;;5004951;28;20491;-73
2022/01/31 09:33:13;;;;;;;14.05;5.68;;;2.60;99.90;;;;;;5001044;28;20050;-74
2022/01/31 09:35:40;;;;;;;14.93;5.63;;;2.60;99.90;;;;;;5008437;28;20050;-73
2022/01/31 09:38:08;;;;;;;16.58;5.05;;;2.70;99.90;;;;;;5013776;28;20519;-72
2022/01/31 09:40:35;;;;;;;13.85;5.25;;;2.70;99.90;;;;;;5006443;28;20503;-71
2022/01/31 09:45:56;;;;;;;13.77;5.07;;;2.80;99.90;;;;;;4996190;28;20045;-70
2022/01/31 09:48:40;;;;;;;12.57;5.50;;;2.90;99.90;;;;;;5001673;28;20030;-70
2022/01/31 09:51:07;;;;;;;10.98;4.47;;;2.90;99.90;;;;;;4998657;28;20077;-72
2022/01/31 09:53:38;;;;;;;13.75;5.93;;;3.00;99.90;;;;;;4995812;28;20042;-71
2022/01/31 09:56:08;;;;;;;13.98;5.57;;;3.00;99.90;;;;;;4994717;28;20030;-71
2022/01/31 09:58:35;;;;;;;13.52;5.20;;;3.00;99.90;;;;;;5002206;28;20090;-70
2022/01/31 10:01:30;;;;;;;15.77;5.68;;;3.00;99.90;;;;;;4987778;28;20070;-70
2022/01/31 10:03:57;;;;;;;;;;;3.00;99.90;;;;;;4990761;28;20057;-71
2022/01/31 10:06:26;;;;;;;16.27;6.13;;;3.00;99.90;;;;;;5003328;28;19910;-71
2022/01/31 10:09:22;;;;;;;15.07;5.97;;;3.00;99.90;;;;;;5005973;28;20023;-70
2022/01/31 10:11:56;;;;;;;21.63;7.10;;;3.10;99.90;;;;;;4983147;28;20129;-70
2022/01/31 10:17:25;;;;;;;14.27;5.53;;;3.10;99.90;;;;;;4999390;28;20053;-71
2022/01/31 10:19:55;;;;;;;20.40;6.57;;;3.10;99.90;;;;;;5005746;28;20026;-70
2022/01/31 10:22:23;;;;;;;14.57;5.00;;;3.10;99.90;;;;;;5004998;28;20038;-70
2022/01/31 10:24:54;;;;;;;13.25;5.57;;;3.10;99.90;;;;;;5005396;28;20090;-69
2022/01/31 10:27:22;;;;;;;17.50;7.50;;;3.10;99.90;;;;;;4993441;28;20034;-71
2022/01/31 10:29:50;;;;;;;11.95;5.45;;;3.10;99.90;;;;;;4991116;28;20018;-71
2022/01/31 10:32:24;;;;;;;14.40;5.60;;;3.10;99.90;;;;;;4984872;28;20069;-70
2022/01/31 10:34:53;;;;;;;16.90;5.93;;;3.10;99.90;;;;;;4987069;28;20018;-71
2022/01/31 10:37:21;;;;;;;8.85;3.92;;;3.10;99.90;;;;;;4995067;28;20038;-72
2022/01/31 10:45:42;;;;;;;13.40;5.03;;;3.20;99.90;;;;;;5004744;28;20430;-69
2022/01/31 10:53:58;;;;;;;14.88;5.05;;;3.40;99.90;;;;;;5004728;28;20108;-69
2022/01/31 10:56:25;;;;;;;12.70;4.85;;;3.40;99.90;;;;;;5003938;28;20033;-69
2022/01/31 10:58:59;;;;;;;12.23;4.78;;;3.50;99.90;;;;;;5001104;28;20030;-70
2022/01/31 11:01:27;;;;;;;12.27;4.55;;;3.60;99.90;;;;;;4986624;28;20030;-69
2022/01/31 11:03:54;;;;;;;11.43;5.18;;;3.60;99.90;;;;;;4994353;28;20031;-69
2022/01/31 11:06:24;;;;;;;15.38;5.05;;;3.60;99.90;;;;;;4991625;28;20022;-70
2022/01/31 11:09:00;;;;;;;18.83;5.05;;;3.60;99.90;;;;;;4993696;28;20037;-70
2022/01/31 11:11:26;;;;;;;13.55;5.40;;;3.70;99.90;;;;;;5003011;28;20041;-70
2022/01/31 11:13:54;;;;;;;11.27;5.47;;;3.70;99.90;;;;;;5003940;28;20030;-70
2022/01/31 11:16:20;;;;;;;11.32;4.50;;;3.80;99.90;;;;;;5007689;28;20121;-71
2022/01/31 11:18:48;;;;;;;15.15;5.50;;;3.80;99.90;;;;;;4986481;28;20027;-70
2022/01/31 11:21:15;;;;;;;16.15;6.18;;;3.80;99.90;;;;;;4987786;28;20031;-71
2022/01/31 11:23:49;;;;;;;11.55;4.90;;;3.90;99.90;;;;;;4987718;28;20162;-69
2022/01/31 11:26:18;;;;;;;12.73;5.45;;;3.90;99.90;;;;;;4990840;28;20049;-71
2022/01/31 11:28:47;;;;;;;9.30;5.35;;;3.90;99.90;;;;;;5007206;28;20077;-71
2022/01/31 11:31:18;;;;;;;13.95;5.13;;;4.00;99.90;;;;;;5007558;28;20034;-71
2022/01/31 11:33:45;;;;;;;13.20;5.85;;;4.00;99.90;;;;;;5007072;28;20022;-70
2022/01/31 11:36:11;;;;;;;15.93;5.05;;;4.00;99.90;;;;;;5007291;28;20045;-70
2022/01/31 11:38:40;;;;;;;11.77;5.30;;;4.10;99.90;;;;;;5002692;28;20022;-69
2022/01/31 11:41:06;;;;;;;10.82;4.55;;;4.00;99.90;;;;;;5026860;28;20025;-69
2022/01/31 11:43:33;;;;;;;12.73;5.07;;;4.00;99.90;;;;;;5007858;28;20042;-71
2022/01/31 11:46:00;;;;;;;13.65;4.53;;;4.10;99.90;;;;;;5006833;28;20022;-70
2022/01/31 11:48:29;;;;;;;13.35;5.00;;;4.10;99.90;;;;;;4989671;28;20030;-68
2022/01/31 11:50:59;;;;;;;15.13;5.60;;;4.10;99.90;;;;;;5006969;28;20049;-67
2022/01/31 11:53:31;;;;;;;14.73;6.20;;;4.10;99.90;;;;;;4988794;28;20069;-69
2022/01/31 11:56:09;;;;;;;8.43;3.85;;;4.10;99.90;;;;;;5006745;28;20029;-68
2022/01/31 11:58:42;;;;;;;12.43;5.07;;;4.10;99.90;;;;;;4987541;28;20030;-70
2022/01/31 12:01:08;;;;;;;10.23;4.65;;;4.20;99.90;;;;;;4987337;28;20387;-69
2022/01/31 12:03:35;;;;;;;12.93;4.60;;;4.20;99.90;;;;;;4987245;28;20042;-69
2022/01/31 12:06:09;;;;;;;11.55;4.68;;;4.20;99.90;;;;;;4987436;28;20030;-69
2022/01/31 12:08:38;;;;;;;11.18;4.90;;;4.20;99.90;;;;;;5005580;28;20033;-68
2022/01/31 12:11:19;;;;;;;12.77;4.95;;;4.20;99.90;;;;;;5006643;28;20065;-70
2022/01/31 12:13:51;;;;;;;9.57;4.30;;;4.30;99.90;;;;;;4988927;28;20395;-70
2022/01/31 12:16:38;;;;;;;9.07;3.83;;;4.30;99.90;;;;;;5006477;28;20553;-71
2022/01/31 12:22:02;;;;;;;11.85;4.20;;;4.30;99.90;;;;;;4987072;28;20033;-68
2022/01/31 12:24:47;;;;;;;11.27;4.38;;;4.30;99.90;;;;;;4987100;28;20046;-69
2022/01/31 12:27:14;;;;;;;11.10;4.25;;;4.30;99.90;;;;;;4998208;28;20042;-68
2022/01/31 12:29:52;;;;;;;13.65;5.85;;;4.40;99.90;;;;;;5005561;28;20030;-70
2022/01/31 12:32:31;;;;;;;10.55;3.95;;;4.50;99.90;;;;;;5006409;28;20022;-71
2022/01/31 12:35:01;;;;;;;14.93;5.65;;;4.40;99.90;;;;;;5006531;28;20189;-68
2022/01/31 12:37:34;;;;;;;10.52;4.70;;;4.40;99.90;;;;;;5006270;28;20066;-69
2022/01/31 12:40:29;;;;;;;13.73;4.80;;;4.40;99.90;;;;;;4988339;28;20026;-71
2022/01/31 12:43:23;;;;;;;10.05;4.57;;;4.40;99.90;;;;;;5006186;28;20031;-69
2022/01/31 12:45:49;;;;;;;10.48;4.00;;;4.40;99.90;;;;;;5004912;28;20094;-70
2022/01/31 12:48:20;;;;;;;12.95;5.22;;;4.40;99.90;;;;;;4987690;28;20057;-70
2022/01/31 12:50:48;;;;;;;9.85;4.05;;;4.40;99.90;;;;;;5006065;28;20030;-70
2022/01/31 12:53:23;;;;;;;8.10;3.97;;;4.40;99.90;;;;;;5005840;28;20038;-69
2022/01/31 12:56:11;;;;;;;9.05;4.75;;;4.40;99.90;;;;;;5006112;28;20030;-69
2022/01/31 12:58:42;;;;;;;10.23;4.05;;;4.40;99.90;;;;;;5005694;28;20026;-70
2022/01/31 13:01:22;;;;;;;14.13;4.18;;;4.40;99.90;;;;;;5005578;28;20093;-70
2022/01/31 13:03:51;;;;;;;10.77;4.55;;;4.40;99.90;;;;;;5005082;28;20041;-70
2022/01/31 13:06:28;;;;;;;12.15;4.53;;;4.40;99.90;;;;;;5005715;28;20148;-70
2022/01/31 13:08:54;;;;;;;9.18;4.38;;;4.30;99.90;;;;;;5004491;28;20041;-70
2022/01/31 13:11:20;;;;;;;12.25;4.57;;;4.30;99.90;;;;;;5005048;28;20053;-70
2022/01/31 13:13:46;;;;;;;9.50;4.22;;;4.30;99.90;;;;;;5005507;28;20026;-68
2022/01/31 13:16:13;;;;;;;7.93;3.78;;;4.30;99.90;;;;;;5005109;28;20108;-70
2022/01/31 13:18:39;;;;;;;11.90;4.22;;;4.30;99.90;;;;;;5005551;28;20102;-68
2022/01/31 13:21:13;;;;;;;8.68;4.07;;;4.30;99.90;;;;;;5005077;28;20090;-69
2022/01/31 13:23:41;;;;;;;12.23;4.68;;;4.30;99.90;;;;;;5004984;28;20069;-69